sensor_id;sensor_type;location;lat;lon;timestamp;P1;durP1;ratioP1;P2;durP2;ratioP2
61903;SDS011;47857;52.270;6.804;2023-03-31T00:01:23;10.52;;;2.58;;
61903;SDS011;47857;52.270;6.804;2023-03-31T00:03:49;11.48;;;2.38;;
61903;SDS011;47857;52.270;6.804;2023-03-31T00:06:15;9.15;;;2.50;;
61903;SDS011;47857;52.270;6.804;2023-03-31T00:08:44;11.50;;;2.70;;
61903;SDS011;47857;52.270;6.804;2023-03-31T00:11:09;11.45;;;2.63;;
61903;SDS011;47857;52.270;6.804;2023-03-31T00:13:36;11.70;;;2.60;;
61903;SDS011;47857;52.270;6.804;2023-03-31T00:16:03;13.40;;;2.35;;
61903;SDS011;47857;52.270;6.804;2023-03-31T00:18:33;10.25;;;2.20;;
61903;SDS011;47857;52.270;6.804;2023-03-31T00:21:09;9.68;;;2.53;;
61903;SDS011;47857;52.270;6.804;2023-03-31T00:23:49;9.88;;;2.40;;
61903;SDS011;47857;52.270;6.804;2023-03-31T00:26:18;12.55;;;2.60;;
61903;SDS011;47857;52.270;6.804;2023-03-31T00:28:43;9.38;;;2.60;;
61903;SDS011;47857;52.270;6.804;2023-03-31T00:31:09;11.60;;;2.47;;
61903;SDS011;47857;52.270;6.804;2023-03-31T00:33:35;16.25;;;2.85;;
61903;SDS011;47857;52.270;6.804;2023-03-31T00:36:00;8.07;;;2.33;;
61903;SDS011;47857;52.270;6.804;2023-03-31T00:38:30;10.45;;;2.58;;
61903;SDS011;47857;52.270;6.804;2023-03-31T00:40:57;14.73;;;2.50;;
61903;SDS011;47857;52.270;6.804;2023-03-31T00:43:33;13.18;;;2.80;;
61903;SDS011;47857;52.270;6.804;2023-03-31T00:46:02;9.25;;;2.38;;
61903;SDS011;47857;52.270;6.804;2023-03-31T00:48:50;10.02;;;2.33;;
61903;SDS011;47857;52.270;6.804;2023-03-31T00:51:17;13.80;;;2.92;;
61903;SDS011;47857;52.270;6.804;2023-03-31T00:53:46;11.85;;;2.40;;
61903;SDS011;47857;52.270;6.804;2023-03-31T00:56:15;11.95;;;2.70;;
61903;SDS011;47857;52.270;6.804;2023-03-31T00:58:41;10.20;;;2.60;;
61903;SDS011;47857;52.270;6.804;2023-03-31T01:01:15;12.07;;;2.30;;
61903;SDS011;47857;52.270;6.804;2023-03-31T01:03:43;9.80;;;2.63;;
61903;SDS011;47857;52.270;6.804;2023-03-31T01:06:11;13.57;;;2.72;;
61903;SDS011;47857;52.270;6.804;2023-03-31T01:08:39;13.63;;;2.88;;
61903;SDS011;47857;52.270;6.804;2023-03-31T01:11:08;9.55;;;2.38;;
61903;SDS011;47857;52.270;6.804;2023-03-31T01:13:35;12.55;;;2.50;;
61903;SDS011;47857;52.270;6.804;2023-03-31T01:16:01;12.10;;;2.90;;
61903;SDS011;47857;52.270;6.804;2023-03-31T01:18:27;11.07;;;2.58;;
61903;SDS011;47857;52.270;6.804;2023-03-31T01:24:07;11.75;;;2.88;;
61903;SDS011;47857;52.270;6.804;2023-03-31T01:37:48;12.18;;;2.45;;
61903;SDS011;47857;52.270;6.804;2023-03-31T01:40:33;14.45;;;2.60;;
61903;SDS011;47857;52.270;6.804;2023-03-31T01:43:05;11.10;;;2.53;;
61903;SDS011;47857;52.270;6.804;2023-03-31T01:48:12;8.13;;;2.30;;
61903;SDS011;47857;52.270;6.804;2023-03-31T01:50:47;13.65;;;2.60;;
61903;SDS011;47857;52.270;6.804;2023-03-31T01:58:53;9.27;;;2.60;;
61903;SDS011;47857;52.270;6.804;2023-03-31T02:01:46;13.32;;;2.80;;
61903;SDS011;47857;52.270;6.804;2023-03-31T02:04:22;10.27;;;2.60;;
61903;SDS011;47857;52.270;6.804;2023-03-31T02:06:52;8.25;;;2.33;;
61903;SDS011;47857;52.270;6.804;2023-03-31T02:09:31;9.73;;;2.20;;
61903;SDS011;47857;52.270;6.804;2023-03-31T02:11:59;10.18;;;2.10;;
61903;SDS011;47857;52.270;6.804;2023-03-31T02:14:29;10.70;;;2.63;;
61903;SDS011;47857;52.270;6.804;2023-03-31T02:16:56;12.93;;;2.70;;
61903;SDS011;47857;52.270;6.804;2023-03-31T02:19:24;14.85;;;2.70;;
61903;SDS011;47857;52.270;6.804;2023-03-31T02:21:52;10.30;;;2.53;;
61903;SDS011;47857;52.270;6.804;2023-03-31T02:24:19;16.88;;;3.60;;
61903;SDS011;47857;52.270;6.804;2023-03-31T02:26:55;11.45;;;2.65;;
61903;SDS011;47857;52.270;6.804;2023-03-31T02:29:26;14.45;;;3.15;;
61903;SDS011;47857;52.270;6.804;2023-03-31T02:31:53;11.10;;;2.70;;
61903;SDS011;47857;52.270;6.804;2023-03-31T02:34:24;10.45;;;2.80;;
61903;SDS011;47857;52.270;6.804;2023-03-31T02:36:50;16.02;;;3.30;;
61903;SDS011;47857;52.270;6.804;2023-03-31T02:39:20;17.08;;;3.40;;
61903;SDS011;47857;52.270;6.804;2023-03-31T02:41:51;10.05;;;2.88;;
61903;SDS011;47857;52.270;6.804;2023-03-31T02:44:18;13.23;;;3.15;;
61903;SDS011;47857;52.270;6.804;2023-03-31T02:46:45;9.70;;;2.97;;
61903;SDS011;47857;52.270;6.804;2023-03-31T02:49:11;11.85;;;3.00;;
61903;SDS011;47857;52.270;6.804;2023-03-31T02:51:46;9.93;;;3.10;;
61903;SDS011;47857;52.270;6.804;2023-03-31T03:08:46;7.82;;;1.85;;
61903;SDS011;47857;52.270;6.804;2023-03-31T03:11:22;8.60;;;1.90;;
61903;SDS011;47857;52.270;6.804;2023-03-31T03:14:14;9.05;;;1.73;;
61903;SDS011;47857;52.270;6.804;2023-03-31T03:16:44;7.82;;;2.10;;
61903;SDS011;47857;52.270;6.804;2023-03-31T03:19:16;8.23;;;2.30;;
61903;SDS011;47857;52.270;6.804;2023-03-31T03:21:46;7.82;;;2.20;;
61903;SDS011;47857;52.270;6.804;2023-03-31T03:24:12;14.00;;;2.53;;
61903;SDS011;47857;52.270;6.804;2023-03-31T03:26:39;10.52;;;2.42;;
61903;SDS011;47857;52.270;6.804;2023-03-31T03:29:05;7.75;;;2.50;;
61903;SDS011;47857;52.270;6.804;2023-03-31T03:31:30;9.18;;;2.78;;
61903;SDS011;47857;52.270;6.804;2023-03-31T03:33:57;8.55;;;2.33;;
61903;SDS011;47857;52.270;6.804;2023-03-31T03:36:23;7.22;;;2.17;;
61903;SDS011;47857;52.270;6.804;2023-03-31T03:38:49;11.18;;;2.60;;
61903;SDS011;47857;52.270;6.804;2023-03-31T03:41:15;7.72;;;2.85;;
61903;SDS011;47857;52.270;6.804;2023-03-31T03:43:40;9.13;;;3.10;;
61903;SDS011;47857;52.270;6.804;2023-03-31T03:46:06;10.73;;;2.80;;
61903;SDS011;47857;52.270;6.804;2023-03-31T03:48:32;13.13;;;3.15;;
61903;SDS011;47857;52.270;6.804;2023-03-31T03:50:58;12.13;;;3.67;;
61903;SDS011;47857;52.270;6.804;2023-03-31T03:53:24;12.75;;;3.33;;
61903;SDS011;47857;52.270;6.804;2023-03-31T03:55:50;11.15;;;3.05;;
61903;SDS011;47857;52.270;6.804;2023-03-31T03:58:16;12.93;;;3.28;;
61903;SDS011;47857;52.270;6.804;2023-03-31T04:00:43;13.73;;;3.30;;
61903;SDS011;47857;52.270;6.804;2023-03-31T04:03:09;11.90;;;3.17;;
61903;SDS011;47857;52.270;6.804;2023-03-31T04:05:35;11.55;;;3.42;;
61903;SDS011;47857;52.270;6.804;2023-03-31T04:08:01;13.35;;;3.30;;
61903;SDS011;47857;52.270;6.804;2023-03-31T04:10:27;10.98;;;3.13;;
61903;SDS011;47857;52.270;6.804;2023-03-31T04:12:53;14.23;;;3.13;;
61903;SDS011;47857;52.270;6.804;2023-03-31T04:15:18;14.15;;;3.30;;
61903;SDS011;47857;52.270;6.804;2023-03-31T04:17:44;15.00;;;3.97;;
61903;SDS011;47857;52.270;6.804;2023-03-31T04:20:14;13.95;;;3.03;;
61903;SDS011;47857;52.270;6.804;2023-03-31T04:22:41;12.15;;;3.65;;
61903;SDS011;47857;52.270;6.804;2023-03-31T04:25:11;12.25;;;3.55;;
61903;SDS011;47857;52.270;6.804;2023-03-31T04:27:48;11.20;;;3.20;;
61903;SDS011;47857;52.270;6.804;2023-03-31T04:30:20;11.82;;;3.35;;
61903;SDS011;47857;52.270;6.804;2023-03-31T04:32:53;13.05;;;3.38;;
61903;SDS011;47857;52.270;6.804;2023-03-31T04:35:20;9.07;;;2.43;;
61903;SDS011;47857;52.270;6.804;2023-03-31T04:37:47;12.85;;;3.38;;
61903;SDS011;47857;52.270;6.804;2023-03-31T04:40:14;15.45;;;3.53;;
61903;SDS011;47857;52.270;6.804;2023-03-31T04:42:41;14.63;;;3.20;;
61903;SDS011;47857;52.270;6.804;2023-03-31T04:45:10;15.38;;;3.70;;
61903;SDS011;47857;52.270;6.804;2023-03-31T04:47:36;11.50;;;3.47;;
61903;SDS011;47857;52.270;6.804;2023-03-31T04:50:02;12.27;;;3.47;;
61903;SDS011;47857;52.270;6.804;2023-03-31T04:52:27;16.45;;;3.53;;
61903;SDS011;47857;52.270;6.804;2023-03-31T04:54:53;13.27;;;3.45;;
61903;SDS011;47857;52.270;6.804;2023-03-31T04:57:19;14.70;;;3.55;;
61903;SDS011;47857;52.270;6.804;2023-03-31T04:59:44;13.32;;;3.35;;
61903;SDS011;47857;52.270;6.804;2023-03-31T05:02:10;14.32;;;3.60;;
61903;SDS011;47857;52.270;6.804;2023-03-31T05:04:36;11.68;;;3.03;;
61903;SDS011;47857;52.270;6.804;2023-03-31T05:07:02;14.85;;;3.50;;
61903;SDS011;47857;52.270;6.804;2023-03-31T05:09:27;13.20;;;3.50;;
61903;SDS011;47857;52.270;6.804;2023-03-31T05:11:53;17.58;;;3.53;;
61903;SDS011;47857;52.270;6.804;2023-03-31T05:14:18;13.93;;;3.30;;
61903;SDS011;47857;52.270;6.804;2023-03-31T05:16:45;12.82;;;3.10;;
61903;SDS011;47857;52.270;6.804;2023-03-31T05:19:10;18.60;;;7.88;;
61903;SDS011;47857;52.270;6.804;2023-03-31T05:21:36;16.48;;;5.88;;
61903;SDS011;47857;52.270;6.804;2023-03-31T05:24:02;22.75;;;7.20;;
61903;SDS011;47857;52.270;6.804;2023-03-31T05:26:29;25.77;;;9.43;;
61903;SDS011;47857;52.270;6.804;2023-03-31T05:28:54;32.45;;;12.88;;
61903;SDS011;47857;52.270;6.804;2023-03-31T05:31:20;22.42;;;7.57;;
61903;SDS011;47857;52.270;6.804;2023-03-31T05:33:46;16.65;;;4.88;;
61903;SDS011;47857;52.270;6.804;2023-03-31T05:36:13;13.00;;;3.83;;
61903;SDS011;47857;52.270;6.804;2023-03-31T05:38:40;11.10;;;3.42;;
61903;SDS011;47857;52.270;6.804;2023-03-31T05:41:06;12.52;;;2.75;;
61903;SDS011;47857;52.270;6.804;2023-03-31T05:43:33;15.88;;;3.30;;
61903;SDS011;47857;52.270;6.804;2023-03-31T05:45:59;13.82;;;3.17;;
61903;SDS011;47857;52.270;6.804;2023-03-31T05:48:26;13.77;;;3.25;;
61903;SDS011;47857;52.270;6.804;2023-03-31T05:50:54;16.45;;;3.83;;
61903;SDS011;47857;52.270;6.804;2023-03-31T05:53:21;16.40;;;3.22;;
61903;SDS011;47857;52.270;6.804;2023-03-31T05:55:47;15.48;;;3.38;;
61903;SDS011;47857;52.270;6.804;2023-03-31T05:58:13;15.02;;;3.25;;
61903;SDS011;47857;52.270;6.804;2023-03-31T06:00:38;15.93;;;3.35;;
61903;SDS011;47857;52.270;6.804;2023-03-31T06:03:04;20.20;;;4.30;;
61903;SDS011;47857;52.270;6.804;2023-03-31T06:05:32;12.02;;;3.00;;
61903;SDS011;47857;52.270;6.804;2023-03-31T06:07:58;14.95;;;3.00;;
61903;SDS011;47857;52.270;6.804;2023-03-31T06:10:24;14.27;;;3.20;;
61903;SDS011;47857;52.270;6.804;2023-03-31T06:12:50;13.27;;;2.92;;
61903;SDS011;47857;52.270;6.804;2023-03-31T06:15:16;11.57;;;2.70;;
61903;SDS011;47857;52.270;6.804;2023-03-31T06:17:41;14.05;;;2.83;;
61903;SDS011;47857;52.270;6.804;2023-03-31T06:20:07;16.88;;;3.33;;
61903;SDS011;47857;52.270;6.804;2023-03-31T06:22:33;8.63;;;2.25;;
61903;SDS011;47857;52.270;6.804;2023-03-31T06:24:58;13.15;;;2.65;;
61903;SDS011;47857;52.270;6.804;2023-03-31T06:27:24;13.88;;;2.80;;
61903;SDS011;47857;52.270;6.804;2023-03-31T06:29:49;12.55;;;2.72;;
61903;SDS011;47857;52.270;6.804;2023-03-31T06:32:15;15.38;;;3.40;;
61903;SDS011;47857;52.270;6.804;2023-03-31T06:34:40;16.55;;;3.10;;
61903;SDS011;47857;52.270;6.804;2023-03-31T06:37:06;15.10;;;3.00;;
61903;SDS011;47857;52.270;6.804;2023-03-31T06:39:32;14.57;;;2.70;;
61903;SDS011;47857;52.270;6.804;2023-03-31T06:41:57;13.85;;;2.95;;
61903;SDS011;47857;52.270;6.804;2023-03-31T06:44:26;12.65;;;3.15;;
61903;SDS011;47857;52.270;6.804;2023-03-31T06:46:51;14.52;;;3.90;;
61903;SDS011;47857;52.270;6.804;2023-03-31T06:49:17;16.70;;;3.55;;
61903;SDS011;47857;52.270;6.804;2023-03-31T06:51:42;17.45;;;4.05;;
61903;SDS011;47857;52.270;6.804;2023-03-31T06:54:08;15.07;;;3.85;;
61903;SDS011;47857;52.270;6.804;2023-03-31T06:56:34;21.08;;;4.20;;
61903;SDS011;47857;52.270;6.804;2023-03-31T06:58:59;15.27;;;4.30;;
61903;SDS011;47857;52.270;6.804;2023-03-31T07:01:25;16.33;;;4.32;;
61903;SDS011;47857;52.270;6.804;2023-03-31T07:03:50;18.20;;;4.97;;
61903;SDS011;47857;52.270;6.804;2023-03-31T07:06:16;20.02;;;5.25;;
61903;SDS011;47857;52.270;6.804;2023-03-31T07:08:42;19.52;;;5.13;;
61903;SDS011;47857;52.270;6.804;2023-03-31T07:11:07;19.27;;;5.28;;
61903;SDS011;47857;52.270;6.804;2023-03-31T07:13:32;14.52;;;4.68;;
61903;SDS011;47857;52.270;6.804;2023-03-31T07:15:58;18.25;;;4.75;;
61903;SDS011;47857;52.270;6.804;2023-03-31T07:18:24;14.30;;;4.68;;
61903;SDS011;47857;52.270;6.804;2023-03-31T07:20:56;15.20;;;3.88;;
61903;SDS011;47857;52.270;6.804;2023-03-31T07:23:23;17.63;;;4.32;;
61903;SDS011;47857;52.270;6.804;2023-03-31T07:25:49;12.23;;;3.50;;
61903;SDS011;47857;52.270;6.804;2023-03-31T07:28:15;16.00;;;4.03;;
61903;SDS011;47857;52.270;6.804;2023-03-31T07:30:40;14.30;;;3.55;;
61903;SDS011;47857;52.270;6.804;2023-03-31T07:33:06;17.88;;;4.03;;
61903;SDS011;47857;52.270;6.804;2023-03-31T07:35:32;12.82;;;3.88;;
61903;SDS011;47857;52.270;6.804;2023-03-31T07:37:57;11.95;;;3.15;;
61903;SDS011;47857;52.270;6.804;2023-03-31T07:40:25;17.67;;;3.80;;
61903;SDS011;47857;52.270;6.804;2023-03-31T07:42:51;13.40;;;3.70;;
61903;SDS011;47857;52.270;6.804;2023-03-31T07:45:18;14.85;;;3.65;;
61903;SDS011;47857;52.270;6.804;2023-03-31T07:47:44;10.50;;;2.92;;
61903;SDS011;47857;52.270;6.804;2023-03-31T07:50:11;12.15;;;2.60;;
61903;SDS011;47857;52.270;6.804;2023-03-31T07:52:37;8.95;;;2.65;;
61903;SDS011;47857;52.270;6.804;2023-03-31T07:55:04;10.13;;;3.03;;
61903;SDS011;47857;52.270;6.804;2023-03-31T07:57:30;10.48;;;2.88;;
61903;SDS011;47857;52.270;6.804;2023-03-31T07:59:55;10.88;;;2.70;;
61903;SDS011;47857;52.270;6.804;2023-03-31T08:02:21;19.15;;;3.13;;
61903;SDS011;47857;52.270;6.804;2023-03-31T08:04:46;14.45;;;3.00;;
61903;SDS011;47857;52.270;6.804;2023-03-31T08:07:12;8.18;;;2.40;;
61903;SDS011;47857;52.270;6.804;2023-03-31T08:09:39;8.65;;;2.10;;
61903;SDS011;47857;52.270;6.804;2023-03-31T08:12:05;8.00;;;1.90;;
61903;SDS011;47857;52.270;6.804;2023-03-31T08:14:31;7.13;;;2.00;;
61903;SDS011;47857;52.270;6.804;2023-03-31T08:16:56;6.63;;;1.73;;
61903;SDS011;47857;52.270;6.804;2023-03-31T08:19:24;7.55;;;1.70;;
61903;SDS011;47857;52.270;6.804;2023-03-31T08:21:52;9.90;;;2.10;;
61903;SDS011;47857;52.270;6.804;2023-03-31T08:24:18;13.98;;;5.30;;
61903;SDS011;47857;52.270;6.804;2023-03-31T08:26:44;8.50;;;2.80;;
61903;SDS011;47857;52.270;6.804;2023-03-31T08:29:10;10.93;;;3.78;;
61903;SDS011;47857;52.270;6.804;2023-03-31T08:31:35;8.10;;;2.08;;
61903;SDS011;47857;52.270;6.804;2023-03-31T08:34:01;11.68;;;3.60;;
61903;SDS011;47857;52.270;6.804;2023-03-31T08:36:29;8.43;;;2.63;;
61903;SDS011;47857;52.270;6.804;2023-03-31T08:38:55;17.45;;;7.03;;
61903;SDS011;47857;52.270;6.804;2023-03-31T08:46:41;9.02;;;1.92;;
61903;SDS011;47857;52.270;6.804;2023-03-31T08:49:08;9.95;;;2.08;;
61903;SDS011;47857;52.270;6.804;2023-03-31T08:51:44;7.30;;;1.42;;
61903;SDS011;47857;52.270;6.804;2023-03-31T08:54:16;5.10;;;1.67;;
61903;SDS011;47857;52.270;6.804;2023-03-31T08:56:46;7.80;;;1.80;;
61903;SDS011;47857;52.270;6.804;2023-03-31T08:59:25;7.15;;;2.00;;
61903;SDS011;47857;52.270;6.804;2023-03-31T09:07:44;7.78;;;2.20;;
61903;SDS011;47857;52.270;6.804;2023-03-31T09:15:39;8.27;;;1.80;;
61903;SDS011;47857;52.270;6.804;2023-03-31T09:18:18;6.15;;;1.40;;
61903;SDS011;47857;52.270;6.804;2023-03-31T09:20:47;5.40;;;1.90;;
61903;SDS011;47857;52.270;6.804;2023-03-31T09:25:46;8.70;;;2.08;;
61903;SDS011;47857;52.270;6.804;2023-03-31T09:28:20;5.97;;;1.80;;
61903;SDS011;47857;52.270;6.804;2023-03-31T09:30:57;5.47;;;1.75;;
61903;SDS011;47857;52.270;6.804;2023-03-31T09:35:57;7.40;;;1.48;;
61903;SDS011;47857;52.270;6.804;2023-03-31T09:38:24;6.55;;;1.40;;
61903;SDS011;47857;52.270;6.804;2023-03-31T09:40:54;7.22;;;1.70;;
61903;SDS011;47857;52.270;6.804;2023-03-31T09:43:22;5.22;;;1.38;;
61903;SDS011;47857;52.270;6.804;2023-03-31T09:45:51;7.07;;;1.60;;
61903;SDS011;47857;52.270;6.804;2023-03-31T09:48:19;7.13;;;1.83;;
61903;SDS011;47857;52.270;6.804;2023-03-31T09:51:01;9.02;;;1.88;;
61903;SDS011;47857;52.270;6.804;2023-03-31T09:53:36;7.55;;;2.05;;
61903;SDS011;47857;52.270;6.804;2023-03-31T09:56:07;7.32;;;1.73;;
61903;SDS011;47857;52.270;6.804;2023-03-31T09:58:41;9.15;;;2.30;;
61903;SDS011;47857;52.270;6.804;2023-03-31T10:01:09;8.25;;;2.03;;
61903;SDS011;47857;52.270;6.804;2023-03-31T10:06:17;6.65;;;1.88;;
61903;SDS011;47857;52.270;6.804;2023-03-31T10:08:54;8.50;;;2.47;;
61903;SDS011;47857;52.270;6.804;2023-03-31T10:11:22;8.52;;;2.40;;
61903;SDS011;47857;52.270;6.804;2023-03-31T10:19:17;11.85;;;2.30;;
61903;SDS011;47857;52.270;6.804;2023-03-31T10:21:54;13.40;;;2.50;;
61903;SDS011;47857;52.270;6.804;2023-03-31T10:24:25;11.20;;;2.38;;
61903;SDS011;47857;52.270;6.804;2023-03-31T10:26:52;13.43;;;2.90;;
61903;SDS011;47857;52.270;6.804;2023-03-31T10:29:26;11.43;;;2.83;;
61903;SDS011;47857;52.270;6.804;2023-03-31T10:31:54;16.92;;;2.92;;
61903;SDS011;47857;52.270;6.804;2023-03-31T10:34:20;11.93;;;2.67;;
61903;SDS011;47857;52.270;6.804;2023-03-31T10:36:47;19.85;;;3.08;;
61903;SDS011;47857;52.270;6.804;2023-03-31T10:39:15;15.57;;;3.33;;
61903;SDS011;47857;52.270;6.804;2023-03-31T10:41:41;14.85;;;3.10;;
61903;SDS011;47857;52.270;6.804;2023-03-31T10:44:10;14.05;;;3.40;;
61903;SDS011;47857;52.270;6.804;2023-03-31T10:46:55;12.15;;;2.65;;
61903;SDS011;47857;52.270;6.804;2023-03-31T10:49:28;10.43;;;2.47;;
61903;SDS011;47857;52.270;6.804;2023-03-31T10:51:54;14.02;;;2.80;;
61903;SDS011;47857;52.270;6.804;2023-03-31T10:54:21;14.13;;;2.63;;
61903;SDS011;47857;52.270;6.804;2023-03-31T10:56:51;10.60;;;2.88;;
61903;SDS011;47857;52.270;6.804;2023-03-31T11:07:30;14.52;;;3.60;;
61903;SDS011;47857;52.270;6.804;2023-03-31T11:13:15;15.02;;;4.03;;
61903;SDS011;47857;52.270;6.804;2023-03-31T11:26:26;15.60;;;3.42;;
61903;SDS011;47857;52.270;6.804;2023-03-31T11:29:14;12.43;;;2.75;;
61903;SDS011;47857;52.270;6.804;2023-03-31T11:32:15;13.88;;;2.83;;
61903;SDS011;47857;52.270;6.804;2023-03-31T11:38:04;15.40;;;3.03;;
61903;SDS011;47857;52.270;6.804;2023-03-31T11:41:21;17.63;;;3.20;;
61903;SDS011;47857;52.270;6.804;2023-03-31T11:43:57;15.68;;;3.30;;
61903;SDS011;47857;52.270;6.804;2023-03-31T11:46:47;15.25;;;3.20;;
61903;SDS011;47857;52.270;6.804;2023-03-31T11:49:19;13.60;;;3.22;;
61903;SDS011;47857;52.270;6.804;2023-03-31T11:51:56;14.10;;;3.33;;
61903;SDS011;47857;52.270;6.804;2023-03-31T11:54:26;11.23;;;2.78;;
61903;SDS011;47857;52.270;6.804;2023-03-31T11:56:55;12.63;;;2.78;;
61903;SDS011;47857;52.270;6.804;2023-03-31T11:59:22;18.80;;;3.28;;
61903;SDS011;47857;52.270;6.804;2023-03-31T12:01:53;12.00;;;2.53;;
61903;SDS011;47857;52.270;6.804;2023-03-31T12:04:48;13.65;;;2.90;;
61903;SDS011;47857;52.270;6.804;2023-03-31T12:07:35;10.88;;;2.50;;
61903;SDS011;47857;52.270;6.804;2023-03-31T12:12:52;13.35;;;2.72;;
61903;SDS011;47857;52.270;6.804;2023-03-31T12:18:23;10.35;;;2.40;;
61903;SDS011;47857;52.270;6.804;2023-03-31T12:20:44;10.80;;;2.38;;
61903;SDS011;47857;52.270;6.804;2023-03-31T12:23:14;12.18;;;2.78;;
61903;SDS011;47857;52.270;6.804;2023-03-31T12:28:31;12.95;;;2.63;;
61903;SDS011;47857;52.270;6.804;2023-03-31T12:30:57;13.98;;;3.28;;
61903;SDS011;47857;52.270;6.804;2023-03-31T12:33:29;11.88;;;2.80;;
61903;SDS011;47857;52.270;6.804;2023-03-31T12:41:43;9.60;;;2.65;;
61903;SDS011;47857;52.270;6.804;2023-03-31T12:47:18;10.65;;;2.40;;
61903;SDS011;47857;52.270;6.804;2023-03-31T13:01:18;12.45;;;2.47;;
61903;SDS011;47857;52.270;6.804;2023-03-31T13:03:51;14.45;;;2.75;;
61903;SDS011;47857;52.270;6.804;2023-03-31T13:08:58;11.10;;;2.03;;
61903;SDS011;47857;52.270;6.804;2023-03-31T13:19:49;9.75;;;2.00;;
61903;SDS011;47857;52.270;6.804;2023-03-31T13:22:28;10.55;;;2.47;;
61903;SDS011;47857;52.270;6.804;2023-03-31T13:28:08;15.90;;;2.77;;
61903;SDS011;47857;52.270;6.804;2023-03-31T13:33:06;8.63;;;2.22;;
61903;SDS011;47857;52.270;6.804;2023-03-31T13:35:34;11.63;;;2.60;;
61903;SDS011;47857;52.270;6.804;2023-03-31T13:38:08;11.85;;;2.58;;
61903;SDS011;47857;52.270;6.804;2023-03-31T13:51:51;16.10;;;3.30;;
61903;SDS011;47857;52.270;6.804;2023-03-31T14:08:10;11.98;;;2.22;;
61903;SDS011;47857;52.270;6.804;2023-03-31T14:10:37;6.97;;;2.00;;
61903;SDS011;47857;52.270;6.804;2023-03-31T14:18:18;10.85;;;2.40;;
61903;SDS011;47857;52.270;6.804;2023-03-31T14:20:51;10.70;;;2.40;;
61903;SDS011;47857;52.270;6.804;2023-03-31T14:28:32;11.70;;;2.60;;
61903;SDS011;47857;52.270;6.804;2023-03-31T14:36:23;10.48;;;2.40;;
61903;SDS011;47857;52.270;6.804;2023-03-31T14:38:55;11.70;;;2.60;;
61903;SDS011;47857;52.270;6.804;2023-03-31T14:41:25;9.90;;;2.20;;
61903;SDS011;47857;52.270;6.804;2023-03-31T14:43:54;10.48;;;2.38;;
61903;SDS011;47857;52.270;6.804;2023-03-31T14:46:21;9.32;;;2.10;;
61903;SDS011;47857;52.270;6.804;2023-03-31T14:48:47;9.25;;;2.22;;
61903;SDS011;47857;52.270;6.804;2023-03-31T14:51:15;13.45;;;2.83;;
61903;SDS011;47857;52.270;6.804;2023-03-31T14:53:55;11.45;;;2.60;;
61903;SDS011;47857;52.270;6.804;2023-03-31T14:56:31;6.60;;;1.80;;
61903;SDS011;47857;52.270;6.804;2023-03-31T14:59:00;12.13;;;2.75;;
61903;SDS011;47857;52.270;6.804;2023-03-31T15:01:30;11.25;;;2.70;;
61903;SDS011;47857;52.270;6.804;2023-03-31T15:04:10;9.02;;;2.30;;
61903;SDS011;47857;52.270;6.804;2023-03-31T15:06:41;10.82;;;2.08;;
61903;SDS011;47857;52.270;6.804;2023-03-31T15:09:11;8.63;;;2.20;;
61903;SDS011;47857;52.270;6.804;2023-03-31T15:11:41;10.70;;;2.55;;
61903;SDS011;47857;52.270;6.804;2023-03-31T15:14:07;8.60;;;2.25;;
61903;SDS011;47857;52.270;6.804;2023-03-31T15:16:37;9.18;;;2.20;;
61903;SDS011;47857;52.270;6.804;2023-03-31T15:21:41;9.80;;;2.25;;
61903;SDS011;47857;52.270;6.804;2023-03-31T15:24:09;12.30;;;3.05;;
61903;SDS011;47857;52.270;6.804;2023-03-31T15:26:36;8.40;;;2.38;;
61903;SDS011;47857;52.270;6.804;2023-03-31T15:29:42;10.85;;;2.47;;
61903;SDS011;47857;52.270;6.804;2023-03-31T15:32:16;9.38;;;2.47;;
61903;SDS011;47857;52.270;6.804;2023-03-31T15:34:48;12.13;;;2.63;;
61903;SDS011;47857;52.270;6.804;2023-03-31T15:37:14;10.20;;;2.30;;
61903;SDS011;47857;52.270;6.804;2023-03-31T15:39:42;10.57;;;2.50;;
61903;SDS011;47857;52.270;6.804;2023-03-31T15:42:09;7.55;;;2.30;;
61903;SDS011;47857;52.270;6.804;2023-03-31T15:47:05;9.77;;;2.72;;
61903;SDS011;47857;52.270;6.804;2023-03-31T15:49:36;7.75;;;1.70;;
61903;SDS011;47857;52.270;6.804;2023-03-31T15:52:01;7.32;;;1.75;;
61903;SDS011;47857;52.270;6.804;2023-03-31T15:56:59;7.85;;;2.15;;
61903;SDS011;47857;52.270;6.804;2023-03-31T15:59:26;6.68;;;1.73;;
61903;SDS011;47857;52.270;6.804;2023-03-31T16:01:53;5.35;;;1.52;;
61903;SDS011;47857;52.270;6.804;2023-03-31T16:04:20;12.18;;;4.22;;
61903;SDS011;47857;52.270;6.804;2023-03-31T16:06:47;11.93;;;3.10;;
61903;SDS011;47857;52.270;6.804;2023-03-31T16:09:21;8.55;;;3.28;;
61903;SDS011;47857;52.270;6.804;2023-03-31T16:11:53;10.20;;;5.03;;
61903;SDS011;47857;52.270;6.804;2023-03-31T16:14:22;14.50;;;6.25;;
61903;SDS011;47857;52.270;6.804;2023-03-31T16:16:56;14.20;;;5.28;;
61903;SDS011;47857;52.270;6.804;2023-03-31T16:19:25;8.68;;;2.45;;
61903;SDS011;47857;52.270;6.804;2023-03-31T16:21:52;7.05;;;1.75;;
61903;SDS011;47857;52.270;6.804;2023-03-31T16:24:19;8.05;;;1.85;;
61903;SDS011;47857;52.270;6.804;2023-03-31T16:26:46;8.63;;;2.08;;
61903;SDS011;47857;52.270;6.804;2023-03-31T16:29:21;6.22;;;1.73;;
61903;SDS011;47857;52.270;6.804;2023-03-31T16:31:47;7.35;;;1.70;;
61903;SDS011;47857;52.270;6.804;2023-03-31T16:34:13;7.95;;;2.00;;
61903;SDS011;47857;52.270;6.804;2023-03-31T16:36:38;9.75;;;2.88;;
61903;SDS011;47857;52.270;6.804;2023-03-31T16:39:04;9.27;;;2.20;;
61903;SDS011;47857;52.270;6.804;2023-03-31T16:41:34;8.13;;;1.90;;
61903;SDS011;47857;52.270;6.804;2023-03-31T16:44:00;6.35;;;1.50;;
61903;SDS011;47857;52.270;6.804;2023-03-31T16:46:26;8.95;;;1.65;;
61903;SDS011;47857;52.270;6.804;2023-03-31T16:48:52;8.77;;;1.73;;
61903;SDS011;47857;52.270;6.804;2023-03-31T16:51:17;5.63;;;1.48;;
61903;SDS011;47857;52.270;6.804;2023-03-31T16:53:43;7.93;;;1.73;;
61903;SDS011;47857;52.270;6.804;2023-03-31T16:56:10;5.95;;;1.77;;
61903;SDS011;47857;52.270;6.804;2023-03-31T16:58:36;6.45;;;1.77;;
61903;SDS011;47857;52.270;6.804;2023-03-31T17:01:03;7.10;;;1.55;;
61903;SDS011;47857;52.270;6.804;2023-03-31T17:03:30;6.50;;;1.60;;
61903;SDS011;47857;52.270;6.804;2023-03-31T17:05:56;3.80;;;1.30;;
61903;SDS011;47857;52.270;6.804;2023-03-31T17:08:24;8.30;;;1.63;;
61903;SDS011;47857;52.270;6.804;2023-03-31T17:10:55;7.65;;;1.42;;
61903;SDS011;47857;52.270;6.804;2023-03-31T17:13:27;5.07;;;1.55;;
61903;SDS011;47857;52.270;6.804;2023-03-31T17:15:53;3.85;;;1.17;;
61903;SDS011;47857;52.270;6.804;2023-03-31T17:18:19;3.53;;;0.90;;
61903;SDS011;47857;52.270;6.804;2023-03-31T17:20:44;5.72;;;1.00;;
61903;SDS011;47857;52.270;6.804;2023-03-31T17:23:10;2.22;;;0.80;;
61903;SDS011;47857;52.270;6.804;2023-03-31T17:25:36;3.70;;;1.10;;
61903;SDS011;47857;52.270;6.804;2023-03-31T17:28:02;3.38;;;1.00;;
61903;SDS011;47857;52.270;6.804;2023-03-31T17:30:29;5.18;;;1.08;;
61903;SDS011;47857;52.270;6.804;2023-03-31T17:32:56;3.00;;;1.15;;
61903;SDS011;47857;52.270;6.804;2023-03-31T17:35:22;4.85;;;1.10;;
61903;SDS011;47857;52.270;6.804;2023-03-31T17:37:48;3.30;;;0.80;;
61903;SDS011;47857;52.270;6.804;2023-03-31T17:40:17;3.92;;;1.02;;
61903;SDS011;47857;52.270;6.804;2023-03-31T17:42:46;3.97;;;1.10;;
61903;SDS011;47857;52.270;6.804;2023-03-31T17:45:12;3.70;;;1.08;;
61903;SDS011;47857;52.270;6.804;2023-03-31T17:47:38;3.90;;;1.10;;
61903;SDS011;47857;52.270;6.804;2023-03-31T17:50:05;4.25;;;1.23;;
61903;SDS011;47857;52.270;6.804;2023-03-31T17:52:33;2.95;;;1.30;;
61903;SDS011;47857;52.270;6.804;2023-03-31T17:55:00;3.35;;;1.35;;